Portada
METAR-TAF:

METAR-TAF

Aeropuertos :

Aeropuerto Internacional de Chuuk

Weno, Micronesia

latitud: 07-28N, longitud: 151-51E, altitud: 3 m

Observación

El informe se hizo hace 58 minutos, a las 21:52 UTC
Viento 10 kt del noreste con ráfagas de 19 kt
Temperatura 28°C
Humedad 70%
Presión 1012 hPa
Visibilidad: 24.1 km
Escasas nubes a una altura de 1500 ft
Nubes dispersas a una altura de 30000 ft

METAR: PTKK 202152Z 05010G19KT 15SM FEW015 SCT300 28/22 A2989 RMK SLP123 T02830217

Hora: 08:50 (22:50 UTC)

Pronóstico

El informe se hizo hace 5 horas y 24 minutos, a las 17:26 UTC
Pronóstico válido del 20 a las 18 UTC al 21 a las 18 UTC
Viento 14 kt del noreste con ráfagas de 24 kt
Visibilidad: 10 km
Escasas nubes a una altura de 1500 ft

TAF: PTKK 201726Z 2018/2118 05014G24KT P6SM FEW015

Observaciones y pronósticos meteorológicos de más de 4000 aeropuertos (mensajes METAR y TAF).

Los puntos amarillos y rojos representan las estaciones disponibles.

Ponga el ratón en el punto deseado para ver el nombre de la estación.

Haga clic para ver las observaciones y los pronósticos meteorológicos.

Para cambiar el mapa : haga clic en los botones verdes con una cruz de color negro para hacer un zoom, en el botón verde con un guión para alejar o en las flechas verdes para mapas adyacentes.


METAR-TAF: